sensor_id;sensor_type;location;lat;lon;timestamp;pressure;altitude;pressure_sealevel;temperature;humidity
72677;BME280;60755;51.374;10.662;2022-11-24T00:01:57;96204.94;;;2.15;100.00
72677;BME280;60755;51.374;10.662;2022-11-24T00:04:23;96198.91;;;2.21;100.00
72677;BME280;60755;51.374;10.662;2022-11-24T00:06:50;96197.13;;;2.22;100.00
72677;BME280;60755;51.374;10.662;2022-11-24T00:09:18;96203.34;;;2.14;100.00
72677;BME280;60755;51.374;10.662;2022-11-24T00:11:45;96201.31;;;2.16;100.00
72677;BME280;60755;51.374;10.662;2022-11-24T00:14:12;96200.97;;;2.13;100.00
72677;BME280;60755;51.374;10.662;2022-11-24T00:16:39;96201.75;;;2.13;100.00
72677;BME280;60755;51.374;10.662;2022-11-24T00:19:07;96199.72;;;2.22;100.00
72677;BME280;60755;51.374;10.662;2022-11-24T00:21:35;96203.69;;;2.24;100.00
72677;BME280;60755;51.374;10.662;2022-11-24T00:24:02;96210.81;;;2.36;100.00
72677;BME280;60755;51.374;10.662;2022-11-24T00:26:31;96211.38;;;2.38;100.00
72677;BME280;60755;51.374;10.662;2022-11-24T00:29:00;96209.59;;;2.38;100.00
72677;BME280;60755;51.374;10.662;2022-11-24T00:31:30;96211.38;;;2.38;100.00
72677;BME280;60755;51.374;10.662;2022-11-24T00:33:58;96217.59;;;2.37;100.00
72677;BME280;60755;51.374;10.662;2022-11-24T00:36:27;96221.19;;;2.36;100.00
72677;BME280;60755;51.374;10.662;2022-11-24T00:38:56;96218.38;;;2.37;100.00
72677;BME280;60755;51.374;10.662;2022-11-24T00:41:23;96227.94;;;2.37;100.00
72677;BME280;60755;51.374;10.662;2022-11-24T00:43:50;96226.13;;;2.44;100.00
72677;BME280;60755;51.374;10.662;2022-11-24T00:46:17;96236.47;;;2.50;100.00
72677;BME280;60755;51.374;10.662;2022-11-24T00:48:45;96235.81;;;2.55;100.00
72677;BME280;60755;51.374;10.662;2022-11-24T00:51:14;96235.47;;;2.45;100.00
72677;BME280;60755;51.374;10.662;2022-11-24T00:53:41;96237.50;;;2.43;100.00
72677;BME280;60755;51.374;10.662;2022-11-24T00:56:08;96239.06;;;2.50;100.00
72677;BME280;60755;51.374;10.662;2022-11-24T00:58:35;96241.75;;;2.62;100.00
72677;BME280;60755;51.374;10.662;2022-11-24T01:01:03;96240.22;;;2.55;100.00
72677;BME280;60755;51.374;10.662;2022-11-24T01:03:31;96253.97;;;2.55;100.00
72677;BME280;60755;51.374;10.662;2022-11-24T01:06:03;96246.78;;;2.57;100.00
72677;BME280;60755;51.374;10.662;2022-11-24T01:08:29;96267.78;;;2.49;100.00
72677;BME280;60755;51.374;10.662;2022-11-24T01:11:08;96263.38;;;2.49;100.00
72677;BME280;60755;51.374;10.662;2022-11-24T01:13:36;96265.97;;;2.49;100.00
72677;BME280;60755;51.374;10.662;2022-11-24T01:16:02;96268.28;;;2.64;100.00
72677;BME280;60755;51.374;10.662;2022-11-24T01:18:29;96281.25;;;2.64;100.00
72677;BME280;60755;51.374;10.662;2022-11-24T01:20:56;96274.06;;;2.66;100.00
72677;BME280;60755;51.374;10.662;2022-11-24T01:23:23;96275.00;;;2.72;100.00
72677;BME280;60755;51.374;10.662;2022-11-24T01:25:50;96274.75;;;2.80;100.00
72677;BME280;60755;51.374;10.662;2022-11-24T01:28:16;96281.16;;;2.77;100.00
72677;BME280;60755;51.374;10.662;2022-11-24T01:30:43;96279.16;;;2.79;100.00
72677;BME280;60755;51.374;10.662;2022-11-24T01:33:11;96282.16;;;2.83;100.00
72677;BME280;60755;51.374;10.662;2022-11-24T01:35:38;96282.94;;;2.84;100.00
72677;BME280;60755;51.374;10.662;2022-11-24T01:38:04;96288.91;;;2.84;100.00
72677;BME280;60755;51.374;10.662;2022-11-24T01:40:32;96283.31;;;2.87;100.00
72677;BME280;60755;51.374;10.662;2022-11-24T01:42:58;96291.50;;;2.84;100.00
72677;BME280;60755;51.374;10.662;2022-11-24T01:45:35;96285.09;;;2.87;100.00
72677;BME280;60755;51.374;10.662;2022-11-24T01:48:08;96276.75;;;2.85;100.00
72677;BME280;60755;51.374;10.662;2022-11-24T01:50:38;96292.31;;;2.85;100.00
72677;BME280;60755;51.374;10.662;2022-11-24T01:53:06;96302.56;;;2.73;100.00
72677;BME280;60755;51.374;10.662;2022-11-24T01:55:36;96305.72;;;2.82;100.00
72677;BME280;60755;51.374;10.662;2022-11-24T01:58:06;96299.09;;;2.86;100.00
72677;BME280;60755;51.374;10.662;2022-11-24T02:00:37;96303.13;;;2.82;100.00
72677;BME280;60755;51.374;10.662;2022-11-24T02:03:06;96299.22;;;2.97;100.00
72677;BME280;60755;51.374;10.662;2022-11-24T02:05:38;96288.72;;;2.86;100.00
72677;BME280;60755;51.374;10.662;2022-11-24T02:08:13;96294.03;;;2.66;100.00
72677;BME280;60755;51.374;10.662;2022-11-24T02:10:44;96302.88;;;2.51;100.00
72677;BME280;60755;51.374;10.662;2022-11-24T02:13:11;96306.94;;;2.34;100.00
72677;BME280;60755;51.374;10.662;2022-11-24T02:15:40;96317.72;;;2.24;100.00
72677;BME280;60755;51.374;10.662;2022-11-24T02:18:06;96316.97;;;2.17;100.00
72677;BME280;60755;51.374;10.662;2022-11-24T02:20:33;96313.94;;;2.27;100.00
72677;BME280;60755;51.374;10.662;2022-11-24T02:23:04;96313.69;;;2.35;100.00
72677;BME280;60755;51.374;10.662;2022-11-24T02:25:39;96310.91;;;2.37;100.00
72677;BME280;60755;51.374;10.662;2022-11-24T02:28:11;96313.06;;;2.40;100.00
72677;BME280;60755;51.374;10.662;2022-11-24T02:30:39;96316.44;;;2.47;100.00
72677;BME280;60755;51.374;10.662;2022-11-24T02:33:06;96328.38;;;2.55;100.00
72677;BME280;60755;51.374;10.662;2022-11-24T02:35:32;96323.16;;;2.61;100.00
72677;BME280;60755;51.374;10.662;2022-11-24T02:37:59;96323.13;;;2.68;100.00
72677;BME280;60755;51.374;10.662;2022-11-24T02:40:27;96325.94;;;2.66;100.00
72677;BME280;60755;51.374;10.662;2022-11-24T02:42:56;96331.28;;;2.71;100.00
72677;BME280;60755;51.374;10.662;2022-11-24T02:45:25;96331.09;;;2.73;100.00
72677;BME280;60755;51.374;10.662;2022-11-24T02:47:53;96334.31;;;2.68;100.00
72677;BME280;60755;51.374;10.662;2022-11-24T02:50:19;96340.25;;;2.75;100.00
72677;BME280;60755;51.374;10.662;2022-11-24T02:52:46;96337.66;;;2.75;100.00
72677;BME280;60755;51.374;10.662;2022-11-24T02:55:12;96341.03;;;2.83;100.00
72677;BME280;60755;51.374;10.662;2022-11-24T02:57:39;96336.84;;;2.82;100.00
72677;BME280;60755;51.374;10.662;2022-11-24T03:00:06;96337.31;;;2.65;100.00
72677;BME280;60755;51.374;10.662;2022-11-24T03:02:34;96336.03;;;2.81;100.00
72677;BME280;60755;51.374;10.662;2022-11-24T03:05:01;96329.84;;;2.82;100.00
72677;BME280;60755;51.374;10.662;2022-11-24T03:07:27;96340.41;;;2.80;100.00
72677;BME280;60755;51.374;10.662;2022-11-24T03:09:54;96335.81;;;2.83;100.00
72677;BME280;60755;51.374;10.662;2022-11-24T03:12:20;96340.16;;;2.89;100.00
72677;BME280;60755;51.374;10.662;2022-11-24T03:14:47;96341.94;;;2.95;100.00
72677;BME280;60755;51.374;10.662;2022-11-24T03:17:13;96344.06;;;3.04;100.00
72677;BME280;60755;51.374;10.662;2022-11-24T03:19:41;96341.78;;;3.21;100.00
72677;BME280;60755;51.374;10.662;2022-11-24T03:22:08;96350.91;;;3.30;100.00
72677;BME280;60755;51.374;10.662;2022-11-24T03:24:34;96355.09;;;3.31;100.00
72677;BME280;60755;51.374;10.662;2022-11-24T03:27:02;96357.75;;;3.50;100.00
72677;BME280;60755;51.374;10.662;2022-11-24T03:29:29;96357.78;;;3.43;100.00
72677;BME280;60755;51.374;10.662;2022-11-24T03:31:55;96359.50;;;3.31;100.00
72677;BME280;60755;51.374;10.662;2022-11-24T03:34:22;96357.00;;;3.43;100.00
72677;BME280;60755;51.374;10.662;2022-11-24T03:36:50;96358.09;;;3.28;100.00
72677;BME280;60755;51.374;10.662;2022-11-24T03:39:16;96355.28;;;3.05;100.00
72677;BME280;60755;51.374;10.662;2022-11-24T03:41:43;96356.09;;;2.99;100.00
72677;BME280;60755;51.374;10.662;2022-11-24T03:44:09;96358.56;;;2.80;100.00
72677;BME280;60755;51.374;10.662;2022-11-24T03:46:36;96363.28;;;2.52;100.00
72677;BME280;60755;51.374;10.662;2022-11-24T03:49:03;96364.34;;;2.38;100.00
72677;BME280;60755;51.374;10.662;2022-11-24T03:51:29;96356.00;;;2.22;100.00
72677;BME280;60755;51.374;10.662;2022-11-24T03:53:57;96366.94;;;2.24;100.00
72677;BME280;60755;51.374;10.662;2022-11-24T03:56:24;96373.97;;;2.17;100.00
72677;BME280;60755;51.374;10.662;2022-11-24T03:58:50;96382.34;;;2.19;100.00
72677;BME280;60755;51.374;10.662;2022-11-24T04:01:17;96377.75;;;2.21;100.00
72677;BME280;60755;51.374;10.662;2022-11-24T04:03:43;96384.06;;;2.39;100.00
72677;BME280;60755;51.374;10.662;2022-11-24T04:06:10;96382.03;;;2.54;100.00
72677;BME280;60755;51.374;10.662;2022-11-24T04:08:36;96390.16;;;2.64;100.00
72677;BME280;60755;51.374;10.662;2022-11-24T04:11:04;96379.75;;;2.77;100.00
72677;BME280;60755;51.374;10.662;2022-11-24T04:13:31;96383.72;;;3.18;100.00
72677;BME280;60755;51.374;10.662;2022-11-24T04:15:56;96383.13;;;3.16;100.00
72677;BME280;60755;51.374;10.662;2022-11-24T04:18:23;96376.19;;;3.10;100.00
72677;BME280;60755;51.374;10.662;2022-11-24T04:20:50;96387.34;;;3.11;100.00
72677;BME280;60755;51.374;10.662;2022-11-24T04:23:17;96384.97;;;3.41;100.00
72677;BME280;60755;51.374;10.662;2022-11-24T04:25:44;96386.31;;;3.50;100.00
72677;BME280;60755;51.374;10.662;2022-11-24T04:28:11;96384.63;;;3.62;100.00
72677;BME280;60755;51.374;10.662;2022-11-24T04:30:38;96388.44;;;3.59;100.00
72677;BME280;60755;51.374;10.662;2022-11-24T04:33:09;96385.16;;;3.71;100.00
72677;BME280;60755;51.374;10.662;2022-11-24T04:35:35;96397.50;;;3.75;100.00
72677;BME280;60755;51.374;10.662;2022-11-24T04:38:02;96401.53;;;3.96;100.00
72677;BME280;60755;51.374;10.662;2022-11-24T04:40:28;96393.97;;;3.95;100.00
72677;BME280;60755;51.374;10.662;2022-11-24T04:42:55;96405.72;;;3.97;100.00
72677;BME280;60755;51.374;10.662;2022-11-24T04:45:23;96412.16;;;3.95;100.00
72677;BME280;60755;51.374;10.662;2022-11-24T04:47:50;96406.91;;;4.01;100.00
72677;BME280;60755;51.374;10.662;2022-11-24T04:50:17;96404.94;;;3.97;100.00
72677;BME280;60755;51.374;10.662;2022-11-24T04:52:43;96417.13;;;3.96;100.00
72677;BME280;60755;51.374;10.662;2022-11-24T04:55:10;96422.06;;;3.79;100.00
72677;BME280;60755;51.374;10.662;2022-11-24T04:57:37;96420.97;;;3.93;100.00
72677;BME280;60755;51.374;10.662;2022-11-24T05:00:04;96424.97;;;3.89;100.00
72677;BME280;60755;51.374;10.662;2022-11-24T05:02:32;96422.97;;;3.91;100.00
72677;BME280;60755;51.374;10.662;2022-11-24T05:04:59;96425.81;;;3.83;100.00
72677;BME280;60755;51.374;10.662;2022-11-24T05:07:25;96428.00;;;3.86;100.00
72677;BME280;60755;51.374;10.662;2022-11-24T05:09:52;96432.25;;;3.81;100.00
72677;BME280;60755;51.374;10.662;2022-11-24T05:12:36;96432.19;;;3.87;100.00
72677;BME280;60755;51.374;10.662;2022-11-24T05:15:04;96439.28;;;3.99;100.00
72677;BME280;60755;51.374;10.662;2022-11-24T05:17:35;96435.34;;;3.96;100.00
72677;BME280;60755;51.374;10.662;2022-11-24T05:20:03;96442.59;;;3.87;100.00
72677;BME280;60755;51.374;10.662;2022-11-24T05:22:31;96440.97;;;3.93;100.00
72677;BME280;60755;51.374;10.662;2022-11-24T05:24:57;96436.47;;;4.00;100.00
72677;BME280;60755;51.374;10.662;2022-11-24T05:27:24;96432.94;;;3.95;100.00
72677;BME280;60755;51.374;10.662;2022-11-24T05:29:50;96444.13;;;3.95;100.00
72677;BME280;60755;51.374;10.662;2022-11-24T05:32:17;96444.44;;;3.80;100.00
72677;BME280;60755;51.374;10.662;2022-11-24T05:34:45;96455.53;;;3.69;100.00
72677;BME280;60755;51.374;10.662;2022-11-24T05:37:12;96457.19;;;3.57;100.00
72677;BME280;60755;51.374;10.662;2022-11-24T05:39:38;96461.81;;;3.55;100.00
72677;BME280;60755;51.374;10.662;2022-11-24T05:42:06;96463.63;;;3.54;100.00
72677;BME280;60755;51.374;10.662;2022-11-24T05:44:46;96463.00;;;3.52;100.00
72677;BME280;60755;51.374;10.662;2022-11-24T05:47:13;96464.81;;;3.52;100.00
72677;BME280;60755;51.374;10.662;2022-11-24T05:49:39;96466.75;;;3.63;100.00
72677;BME280;60755;51.374;10.662;2022-11-24T05:52:07;96464.00;;;3.51;100.00
72677;BME280;60755;51.374;10.662;2022-11-24T05:54:34;96470.66;;;3.47;100.00
72677;BME280;60755;51.374;10.662;2022-11-24T05:57:01;96470.22;;;3.50;100.00
72677;BME280;60755;51.374;10.662;2022-11-24T05:59:27;96465.22;;;3.49;100.00
72677;BME280;60755;51.374;10.662;2022-11-24T06:01:53;96464.81;;;3.52;100.00
72677;BME280;60755;51.374;10.662;2022-11-24T06:04:20;96468.41;;;3.51;100.00
72677;BME280;60755;51.374;10.662;2022-11-24T06:06:46;96467.22;;;3.53;100.00
72677;BME280;60755;51.374;10.662;2022-11-24T06:09:14;96474.19;;;3.53;100.00
72677;BME280;60755;51.374;10.662;2022-11-24T06:11:41;96480.00;;;3.55;100.00
72677;BME280;60755;51.374;10.662;2022-11-24T06:14:08;96477.97;;;3.57;100.00
72677;BME280;60755;51.374;10.662;2022-11-24T06:16:35;96486.59;;;3.51;100.00
72677;BME280;60755;51.374;10.662;2022-11-24T06:19:01;96479.69;;;3.38;100.00
72677;BME280;60755;51.374;10.662;2022-11-24T06:21:28;96496.31;;;3.30;100.00
72677;BME280;60755;51.374;10.662;2022-11-24T06:23:56;96496.13;;;3.25;100.00
72677;BME280;60755;51.374;10.662;2022-11-24T06:26:23;96501.13;;;3.20;100.00
72677;BME280;60755;51.374;10.662;2022-11-24T06:28:50;96500.50;;;3.25;100.00
72677;BME280;60755;51.374;10.662;2022-11-24T06:31:16;96501.31;;;3.63;100.00
72677;BME280;60755;51.374;10.662;2022-11-24T06:33:43;96509.47;;;3.67;100.00
72677;BME280;60755;51.374;10.662;2022-11-24T06:36:12;96507.16;;;3.52;100.00
72677;BME280;60755;51.374;10.662;2022-11-24T06:38:39;96509.63;;;3.41;100.00
72677;BME280;60755;51.374;10.662;2022-11-24T06:41:08;96517.22;;;3.35;100.00
72677;BME280;60755;51.374;10.662;2022-11-24T06:43:36;96512.47;;;3.32;100.00
72677;BME280;60755;51.374;10.662;2022-11-24T06:46:03;96512.47;;;3.26;100.00
72677;BME280;60755;51.374;10.662;2022-11-24T06:48:30;96510.13;;;3.18;100.00
72677;BME280;60755;51.374;10.662;2022-11-24T06:50:57;96517.69;;;3.19;100.00
72677;BME280;60755;51.374;10.662;2022-11-24T06:53:24;96523.09;;;3.18;100.00
72677;BME280;60755;51.374;10.662;2022-11-24T06:55:52;96519.91;;;3.22;100.00
72677;BME280;60755;51.374;10.662;2022-11-24T06:58:18;96529.66;;;3.20;100.00
72677;BME280;60755;51.374;10.662;2022-11-24T07:00:46;96535.63;;;3.27;100.00
72677;BME280;60755;51.374;10.662;2022-11-24T07:03:14;96526.56;;;3.50;100.00
72677;BME280;60755;51.374;10.662;2022-11-24T07:05:43;96527.53;;;3.55;100.00
72677;BME280;60755;51.374;10.662;2022-11-24T07:08:09;96530.03;;;3.69;100.00
72677;BME280;60755;51.374;10.662;2022-11-24T07:10:36;96534.25;;;3.70;100.00
72677;BME280;60755;51.374;10.662;2022-11-24T07:13:05;96538.22;;;3.79;100.00
72677;BME280;60755;51.374;10.662;2022-11-24T07:15:32;96547.13;;;3.89;100.00
72677;BME280;60755;51.374;10.662;2022-11-24T07:18:00;96541.25;;;4.01;100.00
72677;BME280;60755;51.374;10.662;2022-11-24T07:20:26;96544.78;;;4.13;100.00
72677;BME280;60755;51.374;10.662;2022-11-24T07:22:54;96547.44;;;4.31;100.00
72677;BME280;60755;51.374;10.662;2022-11-24T07:25:21;96538.56;;;4.39;100.00
72677;BME280;60755;51.374;10.662;2022-11-24T07:27:48;96550.69;;;4.52;100.00
72677;BME280;60755;51.374;10.662;2022-11-24T07:30:15;96555.03;;;4.58;100.00
72677;BME280;60755;51.374;10.662;2022-11-24T07:32:41;96554.44;;;4.56;100.00
72677;BME280;60755;51.374;10.662;2022-11-24T07:35:09;96549.13;;;4.69;100.00
72677;BME280;60755;51.374;10.662;2022-11-24T07:37:36;96555.06;;;4.76;100.00
72677;BME280;60755;51.374;10.662;2022-11-24T07:40:03;96567.56;;;4.67;100.00
72677;BME280;60755;51.374;10.662;2022-11-24T07:42:30;96560.97;;;4.65;100.00
72677;BME280;60755;51.374;10.662;2022-11-24T07:44:56;96566.34;;;4.70;100.00
72677;BME280;60755;51.374;10.662;2022-11-24T07:47:23;96574.31;;;4.75;100.00
72677;BME280;60755;51.374;10.662;2022-11-24T07:49:49;96573.06;;;4.77;100.00
72677;BME280;60755;51.374;10.662;2022-11-24T07:52:17;96574.88;;;4.77;100.00
72677;BME280;60755;51.374;10.662;2022-11-24T07:54:44;96565.94;;;4.91;100.00
72677;BME280;60755;51.374;10.662;2022-11-24T07:57:10;96572.53;;;4.94;100.00
72677;BME280;60755;51.374;10.662;2022-11-24T07:59:37;96573.31;;;4.94;100.00
72677;BME280;60755;51.374;10.662;2022-11-24T08:02:03;96570.88;;;4.99;100.00
72677;BME280;60755;51.374;10.662;2022-11-24T08:04:30;96586.06;;;5.02;100.00
72677;BME280;60755;51.374;10.662;2022-11-24T08:06:57;96584.28;;;5.21;100.00
72677;BME280;60755;51.374;10.662;2022-11-24T08:09:25;96591.44;;;5.26;100.00
72677;BME280;60755;51.374;10.662;2022-11-24T08:11:51;96598.50;;;5.19;100.00
72677;BME280;60755;51.374;10.662;2022-11-24T08:14:18;96594.81;;;5.26;100.00
72677;BME280;60755;51.374;10.662;2022-11-24T08:16:44;96593.22;;;5.25;100.00
72677;BME280;60755;51.374;10.662;2022-11-24T08:19:11;96585.09;;;4.97;100.00
72677;BME280;60755;51.374;10.662;2022-11-24T08:21:37;96594.66;;;5.03;100.00
72677;BME280;60755;51.374;10.662;2022-11-24T08:24:04;96589.75;;;5.13;100.00
72677;BME280;60755;51.374;10.662;2022-11-24T08:26:33;96592.16;;;5.15;100.00
72677;BME280;60755;51.374;10.662;2022-11-24T08:28:59;96598.66;;;5.24;100.00
72677;BME280;60755;51.374;10.662;2022-11-24T08:31:27;96594.75;;;5.33;100.00
72677;BME280;60755;51.374;10.662;2022-11-24T08:33:57;96590.28;;;5.40;100.00
72677;BME280;60755;51.374;10.662;2022-11-24T08:36:24;96602.34;;;5.53;100.00
72677;BME280;60755;51.374;10.662;2022-11-24T08:38:53;96587.91;;;5.69;100.00
72677;BME280;60755;51.374;10.662;2022-11-24T08:41:20;96589.91;;;5.85;100.00
72677;BME280;60755;51.374;10.662;2022-11-24T08:43:48;96593.66;;;6.07;100.00
72677;BME280;60755;51.374;10.662;2022-11-24T08:46:16;96590.66;;;6.22;100.00
72677;BME280;60755;51.374;10.662;2022-11-24T08:48:43;96596.66;;;6.23;100.00
72677;BME280;60755;51.374;10.662;2022-11-24T08:51:11;96600.13;;;6.35;100.00
72677;BME280;60755;51.374;10.662;2022-11-24T08:53:39;96604.38;;;6.71;100.00
72677;BME280;60755;51.374;10.662;2022-11-24T08:56:07;96608.13;;;6.75;100.00
72677;BME280;60755;51.374;10.662;2022-11-24T08:58:35;96613.72;;;6.90;100.00
72677;BME280;60755;51.374;10.662;2022-11-24T09:01:07;96610.38;;;6.71;98.87
72677;BME280;60755;51.374;10.662;2022-11-24T09:03:35;96615.59;;;6.60;99.55
72677;BME280;60755;51.374;10.662;2022-11-24T09:06:03;96620.53;;;6.38;100.00
72677;BME280;60755;51.374;10.662;2022-11-24T09:08:30;96627.22;;;6.34;100.00
72677;BME280;60755;51.374;10.662;2022-11-24T09:10:58;96615.25;;;6.14;100.00
72677;BME280;60755;51.374;10.662;2022-11-24T09:13:25;96624.97;;;6.07;100.00
72677;BME280;60755;51.374;10.662;2022-11-24T09:15:52;96628.59;;;6.06;100.00
72677;BME280;60755;51.374;10.662;2022-11-24T09:18:20;96623.38;;;6.06;100.00
72677;BME280;60755;51.374;10.662;2022-11-24T09:20:46;96637.00;;;6.08;100.00
72677;BME280;60755;51.374;10.662;2022-11-24T09:23:13;96637.09;;;6.02;100.00
72677;BME280;60755;51.374;10.662;2022-11-24T09:25:39;96631.19;;;6.06;100.00
72677;BME280;60755;51.374;10.662;2022-11-24T09:28:06;96639.09;;;6.18;100.00
72677;BME280;60755;51.374;10.662;2022-11-24T09:30:32;96640.63;;;6.37;100.00
72677;BME280;60755;51.374;10.662;2022-11-24T09:32:59;96640.34;;;6.69;100.00
72677;BME280;60755;51.374;10.662;2022-11-24T09:35:27;96640.75;;;7.08;100.00
72677;BME280;60755;51.374;10.662;2022-11-24T09:37:53;96641.88;;;7.47;98.06
72677;BME280;60755;51.374;10.662;2022-11-24T09:40:21;96645.47;;;7.46;98.01
72677;BME280;60755;51.374;10.662;2022-11-24T09:42:55;96650.94;;;7.56;98.30
72677;BME280;60755;51.374;10.662;2022-11-24T09:45:31;96660.22;;;7.75;96.64
72677;BME280;60755;51.374;10.662;2022-11-24T09:48:02;96663.84;;;7.86;95.63
72677;BME280;60755;51.374;10.662;2022-11-24T09:50:36;96663.38;;;7.89;95.57
72677;BME280;60755;51.374;10.662;2022-11-24T09:53:07;96668.25;;;7.85;96.08
72677;BME280;60755;51.374;10.662;2022-11-24T09:55:38;96668.06;;;7.87;96.23
72677;BME280;60755;51.374;10.662;2022-11-24T09:58:13;96670.09;;;7.85;96.41
72677;BME280;60755;51.374;10.662;2022-11-24T10:00:40;96664.09;;;8.13;92.53
72677;BME280;60755;51.374;10.662;2022-11-24T10:03:14;96668.56;;;8.01;95.03
72677;BME280;60755;51.374;10.662;2022-11-24T10:05:44;96665.50;;;8.04;93.62
72677;BME280;60755;51.374;10.662;2022-11-24T10:08:22;96672.69;;;8.25;93.41
72677;BME280;60755;51.374;10.662;2022-11-24T10:10:55;96671.72;;;8.14;93.13
72677;BME280;60755;51.374;10.662;2022-11-24T10:13:46;96675.09;;;8.27;91.57
72677;BME280;60755;51.374;10.662;2022-11-24T10:16:21;96670.56;;;8.22;91.98
72677;BME280;60755;51.374;10.662;2022-11-24T10:19:01;96677.13;;;8.36;91.42
72677;BME280;60755;51.374;10.662;2022-11-24T10:21:50;96679.53;;;8.26;92.36
72677;BME280;60755;51.374;10.662;2022-11-24T10:24:35;96679.66;;;8.60;91.73
72677;BME280;60755;51.374;10.662;2022-11-24T10:27:15;96684.13;;;8.76;91.38
72677;BME280;60755;51.374;10.662;2022-11-24T10:29:42;96672.22;;;8.85;90.03
72677;BME280;60755;51.374;10.662;2022-11-24T10:32:13;96686.44;;;8.44;92.67
72677;BME280;60755;51.374;10.662;2022-11-24T10:34:43;96682.25;;;8.43;92.93
72677;BME280;60755;51.374;10.662;2022-11-24T10:37:15;96672.34;;;8.62;91.51
72677;BME280;60755;51.374;10.662;2022-11-24T10:39:51;96679.03;;;8.69;91.68
72677;BME280;60755;51.374;10.662;2022-11-24T10:42:25;96678.94;;;8.81;92.23
72677;BME280;60755;51.374;10.662;2022-11-24T10:44:58;96672.94;;;8.97;90.37
72677;BME280;60755;51.374;10.662;2022-11-24T10:47:24;96671.34;;;8.96;89.84
72677;BME280;60755;51.374;10.662;2022-11-24T10:49:54;96676.03;;;9.11;89.50
72677;BME280;60755;51.374;10.662;2022-11-24T10:52:25;96666.34;;;9.12;89.30
72677;BME280;60755;51.374;10.662;2022-11-24T10:54:55;96674.13;;;9.07;91.50
72677;BME280;60755;51.374;10.662;2022-11-24T10:57:30;96676.19;;;9.05;90.62
72677;BME280;60755;51.374;10.662;2022-11-24T10:59:57;96674.75;;;8.97;89.84
72677;BME280;60755;51.374;10.662;2022-11-24T11:02:41;96679.06;;;9.03;88.02
72677;BME280;60755;51.374;10.662;2022-11-24T11:05:32;96680.50;;;8.65;91.23
72677;BME280;60755;51.374;10.662;2022-11-24T11:08:18;96681.97;;;8.73;92.29
72677;BME280;60755;51.374;10.662;2022-11-24T11:10:46;96688.94;;;8.51;90.05
72677;BME280;60755;51.374;10.662;2022-11-24T11:13:24;96683.50;;;8.29;89.33
72677;BME280;60755;51.374;10.662;2022-11-24T11:15:52;96685.41;;;8.33;89.06
72677;BME280;60755;51.374;10.662;2022-11-24T11:18:19;96688.44;;;8.54;89.63
72677;BME280;60755;51.374;10.662;2022-11-24T11:20:51;96693.16;;;8.68;87.26
72677;BME280;60755;51.374;10.662;2022-11-24T11:23:25;96700.00;;;8.86;88.77
72677;BME280;60755;51.374;10.662;2022-11-24T11:26:16;96691.91;;;9.05;86.66
72677;BME280;60755;51.374;10.662;2022-11-24T11:28:56;96696.50;;;8.81;87.90
72677;BME280;60755;51.374;10.662;2022-11-24T11:31:22;96704.41;;;8.52;88.54
72677;BME280;60755;51.374;10.662;2022-11-24T11:33:57;96705.00;;;8.43;87.51
72677;BME280;60755;51.374;10.662;2022-11-24T11:36:25;96707.16;;;8.46;88.23
72677;BME280;60755;51.374;10.662;2022-11-24T11:38:54;96708.19;;;8.45;87.72
72677;BME280;60755;51.374;10.662;2022-11-24T11:41:24;96712.19;;;8.64;89.52
72677;BME280;60755;51.374;10.662;2022-11-24T11:43:59;96713.78;;;8.65;88.05
72677;BME280;60755;51.374;10.662;2022-11-24T11:46:29;96714.13;;;8.68;88.04
72677;BME280;60755;51.374;10.662;2022-11-24T11:48:57;96717.59;;;8.74;88.05
72677;BME280;60755;51.374;10.662;2022-11-24T11:51:38;96712.53;;;8.67;88.60
72677;BME280;60755;51.374;10.662;2022-11-24T11:54:14;96712.94;;;8.48;88.50
72677;BME280;60755;51.374;10.662;2022-11-24T11:56:44;96724.84;;;8.15;90.40
72677;BME280;60755;51.374;10.662;2022-11-24T11:59:22;96722.09;;;8.22;90.35
72677;BME280;60755;51.374;10.662;2022-11-24T12:02:24;96714.22;;;8.45;89.80
72677;BME280;60755;51.374;10.662;2022-11-24T12:04:57;96717.84;;;8.32;89.49
72677;BME280;60755;51.374;10.662;2022-11-24T12:07:36;96719.69;;;8.32;90.94
72677;BME280;60755;51.374;10.662;2022-11-24T12:10:15;96729.66;;;8.18;92.13
72677;BME280;60755;51.374;10.662;2022-11-24T12:13:15;96712.94;;;8.48;91.09
72677;BME280;60755;51.374;10.662;2022-11-24T12:15:48;96709.28;;;8.49;90.49
72677;BME280;60755;51.374;10.662;2022-11-24T12:18:24;96712.50;;;8.51;90.58
72677;BME280;60755;51.374;10.662;2022-11-24T12:21:02;96711.41;;;8.63;88.61
72677;BME280;60755;51.374;10.662;2022-11-24T12:23:44;96719.03;;;8.82;87.64
72677;BME280;60755;51.374;10.662;2022-11-24T12:26:24;96723.84;;;8.56;87.10
72677;BME280;60755;51.374;10.662;2022-11-24T12:29:05;96722.44;;;8.65;87.25
72677;BME280;60755;51.374;10.662;2022-11-24T12:31:41;96726.56;;;8.61;86.63
72677;BME280;60755;51.374;10.662;2022-11-24T12:34:28;96727.91;;;8.24;86.38
72677;BME280;60755;51.374;10.662;2022-11-24T12:37:10;96727.78;;;8.30;87.71
72677;BME280;60755;51.374;10.662;2022-11-24T12:39:44;96726.66;;;8.26;87.95
72677;BME280;60755;51.374;10.662;2022-11-24T12:42:26;96738.13;;;8.25;87.85
72677;BME280;60755;51.374;10.662;2022-11-24T12:45:10;96737.03;;;8.21;86.15
72677;BME280;60755;51.374;10.662;2022-11-24T12:47:49;96741.69;;;8.19;87.74
72677;BME280;60755;51.374;10.662;2022-11-24T12:50:21;96738.84;;;8.21;86.63
72677;BME280;60755;51.374;10.662;2022-11-24T12:52:52;96745.47;;;8.11;87.11
72677;BME280;60755;51.374;10.662;2022-11-24T12:55:20;96745.34;;;8.18;86.70
72677;BME280;60755;51.374;10.662;2022-11-24T12:57:54;96753.47;;;8.33;85.79
72677;BME280;60755;51.374;10.662;2022-11-24T13:00:28;96745.22;;;8.36;85.93
72677;BME280;60755;51.374;10.662;2022-11-24T13:03:12;96746.94;;;8.19;85.73
72677;BME280;60755;51.374;10.662;2022-11-24T13:05:45;96759.47;;;8.05;86.86